sensor_id;sensor_type;location;lat;lon;timestamp;temperature;humidity
10968;DHT22;5536;49.602;10.980;2023-03-12T00:00:01;-0.10;99.90
10968;DHT22;5536;49.602;10.980;2023-03-12T00:02:35;0.00;99.90
10968;DHT22;5536;49.602;10.980;2023-03-12T00:05:04;-0.10;99.90
10968;DHT22;5536;49.602;10.980;2023-03-12T00:07:32;0.00;99.90
10968;DHT22;5536;49.602;10.980;2023-03-12T00:10:01;0.10;99.90
10968;DHT22;5536;49.602;10.980;2023-03-12T00:12:28;0.20;99.90
10968;DHT22;5536;49.602;10.980;2023-03-12T00:14:57;0.30;99.90
10968;DHT22;5536;49.602;10.980;2023-03-12T00:17:25;0.30;99.90
10968;DHT22;5536;49.602;10.980;2023-03-12T00:19:52;0.40;99.90
10968;DHT22;5536;49.602;10.980;2023-03-12T00:22:24;0.40;99.90
10968;DHT22;5536;49.602;10.980;2023-03-12T00:24:52;0.40;99.90
10968;DHT22;5536;49.602;10.980;2023-03-12T00:27:20;0.40;99.90
10968;DHT22;5536;49.602;10.980;2023-03-12T00:29:47;0.40;99.90
10968;DHT22;5536;49.602;10.980;2023-03-12T00:32:15;0.40;99.90
10968;DHT22;5536;49.602;10.980;2023-03-12T00:34:43;0.10;99.90
10968;DHT22;5536;49.602;10.980;2023-03-12T00:37:12;-0.10;99.90
10968;DHT22;5536;49.602;10.980;2023-03-12T00:39:41;-0.30;99.90
10968;DHT22;5536;49.602;10.980;2023-03-12T00:42:08;-0.20;99.90
10968;DHT22;5536;49.602;10.980;2023-03-12T00:44:38;0.00;99.90
10968;DHT22;5536;49.602;10.980;2023-03-12T00:47:06;0.00;99.90
10968;DHT22;5536;49.602;10.980;2023-03-12T00:49:33;0.20;99.90
10968;DHT22;5536;49.602;10.980;2023-03-12T00:52:00;0.10;99.90
10968;DHT22;5536;49.602;10.980;2023-03-12T00:54:28;0.00;99.90
10968;DHT22;5536;49.602;10.980;2023-03-12T00:56:56;0.10;99.90
10968;DHT22;5536;49.602;10.980;2023-03-12T00:59:24;0.00;99.90
10968;DHT22;5536;49.602;10.980;2023-03-12T01:01:51;0.00;99.90
10968;DHT22;5536;49.602;10.980;2023-03-12T01:04:19;-0.10;99.90
10968;DHT22;5536;49.602;10.980;2023-03-12T01:06:46;-0.40;99.90
10968;DHT22;5536;49.602;10.980;2023-03-12T01:09:14;-0.50;99.90
10968;DHT22;5536;49.602;10.980;2023-03-12T01:11:41;-0.60;99.90
10968;DHT22;5536;49.602;10.980;2023-03-12T01:14:09;-0.60;99.90
10968;DHT22;5536;49.602;10.980;2023-03-12T01:16:36;-0.50;99.90
10968;DHT22;5536;49.602;10.980;2023-03-12T01:19:03;-0.40;99.90
10968;DHT22;5536;49.602;10.980;2023-03-12T01:21:31;-0.40;99.90
10968;DHT22;5536;49.602;10.980;2023-03-12T01:23:58;-0.40;99.90
10968;DHT22;5536;49.602;10.980;2023-03-12T01:26:26;-0.20;99.90
10968;DHT22;5536;49.602;10.980;2023-03-12T01:28:53;-0.30;99.90
10968;DHT22;5536;49.602;10.980;2023-03-12T01:31:22;-0.50;99.90
10968;DHT22;5536;49.602;10.980;2023-03-12T01:33:51;-0.40;99.90
10968;DHT22;5536;49.602;10.980;2023-03-12T01:36:20;-0.40;99.90
10968;DHT22;5536;49.602;10.980;2023-03-12T01:38:49;-0.20;99.90
10968;DHT22;5536;49.602;10.980;2023-03-12T01:41:17;-0.20;99.90
10968;DHT22;5536;49.602;10.980;2023-03-12T01:43:45;-0.30;99.90
10968;DHT22;5536;49.602;10.980;2023-03-12T01:46:32;-0.40;99.90
10968;DHT22;5536;49.602;10.980;2023-03-12T01:49:03;-0.50;99.90
10968;DHT22;5536;49.602;10.980;2023-03-12T01:51:35;-0.40;99.90
10968;DHT22;5536;49.602;10.980;2023-03-12T01:54:10;-0.40;99.90
10968;DHT22;5536;49.602;10.980;2023-03-12T01:56:38;-0.60;99.90
10968;DHT22;5536;49.602;10.980;2023-03-12T01:59:13;-0.80;99.90
10968;DHT22;5536;49.602;10.980;2023-03-12T02:01:43;-0.90;99.90
10968;DHT22;5536;49.602;10.980;2023-03-12T02:04:11;-1.10;99.90
10968;DHT22;5536;49.602;10.980;2023-03-12T02:06:44;-0.80;99.90
10968;DHT22;5536;49.602;10.980;2023-03-12T02:09:14;-0.50;99.90
10968;DHT22;5536;49.602;10.980;2023-03-12T02:11:44;-0.50;99.90
10968;DHT22;5536;49.602;10.980;2023-03-12T02:14:12;-0.70;99.90
10968;DHT22;5536;49.602;10.980;2023-03-12T02:16:39;-0.90;99.90
10968;DHT22;5536;49.602;10.980;2023-03-12T02:19:16;-0.90;99.90
10968;DHT22;5536;49.602;10.980;2023-03-12T02:21:45;-0.90;99.90
10968;DHT22;5536;49.602;10.980;2023-03-12T02:24:16;-0.80;99.90
10968;DHT22;5536;49.602;10.980;2023-03-12T02:26:49;-0.80;99.90
10968;DHT22;5536;49.602;10.980;2023-03-12T02:29:17;-0.80;99.90
10968;DHT22;5536;49.602;10.980;2023-03-12T02:31:48;-0.80;99.90
10968;DHT22;5536;49.602;10.980;2023-03-12T02:34:16;-0.90;99.90
10968;DHT22;5536;49.602;10.980;2023-03-12T02:36:43;-0.80;99.90
10968;DHT22;5536;49.602;10.980;2023-03-12T02:39:10;-0.90;99.90
10968;DHT22;5536;49.602;10.980;2023-03-12T02:41:40;-0.90;99.90
10968;DHT22;5536;49.602;10.980;2023-03-12T02:44:12;-0.90;99.90
10968;DHT22;5536;49.602;10.980;2023-03-12T02:46:43;-0.80;99.90
10968;DHT22;5536;49.602;10.980;2023-03-12T02:49:10;-0.80;99.90
10968;DHT22;5536;49.602;10.980;2023-03-12T02:51:39;-0.80;99.90
10968;DHT22;5536;49.602;10.980;2023-03-12T02:54:07;-0.60;99.90
10968;DHT22;5536;49.602;10.980;2023-03-12T02:56:34;-0.40;99.90
10968;DHT22;5536;49.602;10.980;2023-03-12T02:59:01;-0.40;99.90
10968;DHT22;5536;49.602;10.980;2023-03-12T03:01:39;-0.30;99.90
10968;DHT22;5536;49.602;10.980;2023-03-12T03:04:22;-0.20;99.90
10968;DHT22;5536;49.602;10.980;2023-03-12T03:06:50;-0.40;99.90
10968;DHT22;5536;49.602;10.980;2023-03-12T03:09:18;-0.30;99.90
10968;DHT22;5536;49.602;10.980;2023-03-12T03:11:47;-0.10;99.90
10968;DHT22;5536;49.602;10.980;2023-03-12T03:14:14;0.10;99.90
10968;DHT22;5536;49.602;10.980;2023-03-12T03:16:42;0.00;99.90
10968;DHT22;5536;49.602;10.980;2023-03-12T03:19:11;-0.10;99.90
10968;DHT22;5536;49.602;10.980;2023-03-12T03:21:39;-0.30;99.90
10968;DHT22;5536;49.602;10.980;2023-03-12T03:24:07;-0.50;99.90
10968;DHT22;5536;49.602;10.980;2023-03-12T03:26:34;-0.50;99.90
10968;DHT22;5536;49.602;10.980;2023-03-12T03:29:02;-0.50;99.90
10968;DHT22;5536;49.602;10.980;2023-03-12T03:31:29;-0.50;99.90
10968;DHT22;5536;49.602;10.980;2023-03-12T03:33:58;-0.40;99.90
10968;DHT22;5536;49.602;10.980;2023-03-12T03:36:25;-0.30;99.90
10968;DHT22;5536;49.602;10.980;2023-03-12T03:38:53;-0.40;99.90
10968;DHT22;5536;49.602;10.980;2023-03-12T03:41:20;-0.50;99.90
10968;DHT22;5536;49.602;10.980;2023-03-12T03:43:55;-0.50;99.90
10968;DHT22;5536;49.602;10.980;2023-03-12T03:46:23;-0.60;99.90
10968;DHT22;5536;49.602;10.980;2023-03-12T03:48:50;-0.60;99.90
10968;DHT22;5536;49.602;10.980;2023-03-12T03:51:20;-0.60;99.90
10968;DHT22;5536;49.602;10.980;2023-03-12T03:53:47;-0.70;99.90
10968;DHT22;5536;49.602;10.980;2023-03-12T03:56:15;-0.60;99.90
10968;DHT22;5536;49.602;10.980;2023-03-12T03:58:42;-0.60;99.90
10968;DHT22;5536;49.602;10.980;2023-03-12T04:01:12;-0.50;99.90
10968;DHT22;5536;49.602;10.980;2023-03-12T04:03:39;-0.50;99.90
10968;DHT22;5536;49.602;10.980;2023-03-12T04:06:07;-0.50;99.90
10968;DHT22;5536;49.602;10.980;2023-03-12T04:08:36;-0.50;99.90
10968;DHT22;5536;49.602;10.980;2023-03-12T04:11:08;-0.40;99.90
10968;DHT22;5536;49.602;10.980;2023-03-12T04:13:35;-0.30;99.90
10968;DHT22;5536;49.602;10.980;2023-03-12T04:16:03;-0.40;99.90
10968;DHT22;5536;49.602;10.980;2023-03-12T04:18:30;-0.30;99.90
10968;DHT22;5536;49.602;10.980;2023-03-12T04:20:57;-0.10;99.90
10968;DHT22;5536;49.602;10.980;2023-03-12T04:23:25;-0.10;99.90
10968;DHT22;5536;49.602;10.980;2023-03-12T04:25:54;-0.10;99.90
10968;DHT22;5536;49.602;10.980;2023-03-12T04:28:21;-0.10;99.90
10968;DHT22;5536;49.602;10.980;2023-03-12T04:30:54;-0.20;99.90
10968;DHT22;5536;49.602;10.980;2023-03-12T04:33:21;-0.20;99.90
10968;DHT22;5536;49.602;10.980;2023-03-12T04:35:52;-0.20;99.90
10968;DHT22;5536;49.602;10.980;2023-03-12T04:38:20;-0.30;99.90
10968;DHT22;5536;49.602;10.980;2023-03-12T04:40:58;-0.30;99.90
10968;DHT22;5536;49.602;10.980;2023-03-12T04:43:27;-0.30;99.90
10968;DHT22;5536;49.602;10.980;2023-03-12T04:45:54;-0.30;99.90
10968;DHT22;5536;49.602;10.980;2023-03-12T04:48:22;-0.30;99.90
10968;DHT22;5536;49.602;10.980;2023-03-12T04:50:49;-0.30;99.90
10968;DHT22;5536;49.602;10.980;2023-03-12T04:53:16;-0.30;99.90
10968;DHT22;5536;49.602;10.980;2023-03-12T04:55:45;-0.30;99.90
10968;DHT22;5536;49.602;10.980;2023-03-12T04:58:13;-0.30;99.90
10968;DHT22;5536;49.602;10.980;2023-03-12T05:00:41;-0.30;99.90
10968;DHT22;5536;49.602;10.980;2023-03-12T05:03:08;-0.30;99.90
10968;DHT22;5536;49.602;10.980;2023-03-12T05:05:35;-0.30;99.90
10968;DHT22;5536;49.602;10.980;2023-03-12T05:08:03;-0.40;99.90
10968;DHT22;5536;49.602;10.980;2023-03-12T05:10:30;-0.50;99.90
10968;DHT22;5536;49.602;10.980;2023-03-12T05:12:57;-0.50;99.90
10968;DHT22;5536;49.602;10.980;2023-03-12T05:15:26;-0.50;99.90
10968;DHT22;5536;49.602;10.980;2023-03-12T05:17:53;-0.60;99.90
10968;DHT22;5536;49.602;10.980;2023-03-12T05:20:20;-0.50;99.90
10968;DHT22;5536;49.602;10.980;2023-03-12T05:22:48;-0.50;99.90
10968;DHT22;5536;49.602;10.980;2023-03-12T05:25:15;-0.50;99.90
10968;DHT22;5536;49.602;10.980;2023-03-12T05:27:42;-0.40;99.90
10968;DHT22;5536;49.602;10.980;2023-03-12T05:30:10;-0.50;99.90
10968;DHT22;5536;49.602;10.980;2023-03-12T05:32:39;-0.50;99.90
10968;DHT22;5536;49.602;10.980;2023-03-12T05:35:07;-0.50;99.90
10968;DHT22;5536;49.602;10.980;2023-03-12T05:37:35;-0.40;99.90
10968;DHT22;5536;49.602;10.980;2023-03-12T05:40:09;-0.30;99.90
10968;DHT22;5536;49.602;10.980;2023-03-12T05:42:37;-0.30;99.90
10968;DHT22;5536;49.602;10.980;2023-03-12T05:45:05;-0.30;99.90
10968;DHT22;5536;49.602;10.980;2023-03-12T05:47:33;-0.20;99.90
10968;DHT22;5536;49.602;10.980;2023-03-12T05:50:01;-0.20;99.90
10968;DHT22;5536;49.602;10.980;2023-03-12T05:52:29;-0.20;99.90
10968;DHT22;5536;49.602;10.980;2023-03-12T05:54:56;-0.10;99.90
10968;DHT22;5536;49.602;10.980;2023-03-12T05:57:23;0.00;99.90
10968;DHT22;5536;49.602;10.980;2023-03-12T05:59:50;0.10;99.90
10968;DHT22;5536;49.602;10.980;2023-03-12T06:02:17;0.00;99.90
10968;DHT22;5536;49.602;10.980;2023-03-12T06:04:45;-0.10;99.90
10968;DHT22;5536;49.602;10.980;2023-03-12T06:07:14;-0.20;99.90
10968;DHT22;5536;49.602;10.980;2023-03-12T06:09:41;-0.30;99.90
10968;DHT22;5536;49.602;10.980;2023-03-12T06:12:08;-0.30;99.90
10968;DHT22;5536;49.602;10.980;2023-03-12T06:14:36;-0.20;99.90
10968;DHT22;5536;49.602;10.980;2023-03-12T06:17:03;-0.10;99.90
10968;DHT22;5536;49.602;10.980;2023-03-12T06:19:30;-0.10;99.90
10968;DHT22;5536;49.602;10.980;2023-03-12T06:21:58;-0.10;99.90
10968;DHT22;5536;49.602;10.980;2023-03-12T06:24:27;-0.10;99.90
10968;DHT22;5536;49.602;10.980;2023-03-12T06:26:54;-0.10;99.90
10968;DHT22;5536;49.602;10.980;2023-03-12T06:29:21;0.00;99.90
10968;DHT22;5536;49.602;10.980;2023-03-12T06:31:48;0.00;99.90
10968;DHT22;5536;49.602;10.980;2023-03-12T06:34:16;0.00;99.90
10968;DHT22;5536;49.602;10.980;2023-03-12T06:36:45;0.00;99.90
10968;DHT22;5536;49.602;10.980;2023-03-12T06:39:12;0.10;99.90
10968;DHT22;5536;49.602;10.980;2023-03-12T06:41:46;0.20;99.90
10968;DHT22;5536;49.602;10.980;2023-03-12T06:44:13;0.30;99.90
10968;DHT22;5536;49.602;10.980;2023-03-12T06:46:40;0.30;99.90
10968;DHT22;5536;49.602;10.980;2023-03-12T06:49:16;0.40;99.90
10968;DHT22;5536;49.602;10.980;2023-03-12T06:51:57;0.40;99.90
10968;DHT22;5536;49.602;10.980;2023-03-12T06:54:26;0.50;99.90
10968;DHT22;5536;49.602;10.980;2023-03-12T06:57:01;0.50;99.90
10968;DHT22;5536;49.602;10.980;2023-03-12T06:59:41;0.50;99.90
10968;DHT22;5536;49.602;10.980;2023-03-12T07:02:09;0.50;99.90
10968;DHT22;5536;49.602;10.980;2023-03-12T07:04:36;0.50;99.90
10968;DHT22;5536;49.602;10.980;2023-03-12T07:07:03;0.70;99.90
10968;DHT22;5536;49.602;10.980;2023-03-12T07:09:33;0.70;99.90
10968;DHT22;5536;49.602;10.980;2023-03-12T07:12:02;0.80;99.90
10968;DHT22;5536;49.602;10.980;2023-03-12T07:14:30;0.90;99.90
10968;DHT22;5536;49.602;10.980;2023-03-12T07:16:58;1.00;99.90
10968;DHT22;5536;49.602;10.980;2023-03-12T07:19:28;1.00;99.90
10968;DHT22;5536;49.602;10.980;2023-03-12T07:21:57;1.10;99.90
10968;DHT22;5536;49.602;10.980;2023-03-12T07:24:24;1.20;99.90
10968;DHT22;5536;49.602;10.980;2023-03-12T07:26:51;1.30;99.90
10968;DHT22;5536;49.602;10.980;2023-03-12T07:29:21;1.30;99.90
10968;DHT22;5536;49.602;10.980;2023-03-12T07:31:49;1.50;99.90
10968;DHT22;5536;49.602;10.980;2023-03-12T07:34:16;1.50;99.90
10968;DHT22;5536;49.602;10.980;2023-03-12T07:36:45;1.70;99.90
10968;DHT22;5536;49.602;10.980;2023-03-12T07:39:12;1.70;99.90
10968;DHT22;5536;49.602;10.980;2023-03-12T07:41:39;1.70;99.90
10968;DHT22;5536;49.602;10.980;2023-03-12T07:44:07;1.70;99.90
10968;DHT22;5536;49.602;10.980;2023-03-12T07:46:36;1.80;99.90
10968;DHT22;5536;49.602;10.980;2023-03-12T07:49:03;2.00;99.90
10968;DHT22;5536;49.602;10.980;2023-03-12T07:51:31;2.00;99.90
10968;DHT22;5536;49.602;10.980;2023-03-12T07:53:58;2.20;99.90
10968;DHT22;5536;49.602;10.980;2023-03-12T07:56:27;2.30;99.90
10968;DHT22;5536;49.602;10.980;2023-03-12T07:58:54;2.40;99.90
10968;DHT22;5536;49.602;10.980;2023-03-12T08:01:21;2.60;99.90
10968;DHT22;5536;49.602;10.980;2023-03-12T08:03:54;2.40;99.90
10968;DHT22;5536;49.602;10.980;2023-03-12T08:06:21;2.40;99.90
10968;DHT22;5536;49.602;10.980;2023-03-12T08:08:49;2.50;99.90
10968;DHT22;5536;49.602;10.980;2023-03-12T08:11:17;2.40;99.90
10968;DHT22;5536;49.602;10.980;2023-03-12T08:13:44;2.40;99.90
10968;DHT22;5536;49.602;10.980;2023-03-12T08:16:12;2.50;99.90
10968;DHT22;5536;49.602;10.980;2023-03-12T08:18:40;2.50;99.90
10968;DHT22;5536;49.602;10.980;2023-03-12T08:21:11;2.50;99.90
10968;DHT22;5536;49.602;10.980;2023-03-12T08:23:39;2.60;99.90
10968;DHT22;5536;49.602;10.980;2023-03-12T08:26:06;2.80;99.90
10968;DHT22;5536;49.602;10.980;2023-03-12T08:28:34;2.90;99.90
10968;DHT22;5536;49.602;10.980;2023-03-12T08:31:01;3.10;99.90
10968;DHT22;5536;49.602;10.980;2023-03-12T08:33:29;3.10;99.90
10968;DHT22;5536;49.602;10.980;2023-03-12T08:35:57;3.10;99.90
10968;DHT22;5536;49.602;10.980;2023-03-12T08:38:26;3.00;99.90
10968;DHT22;5536;49.602;10.980;2023-03-12T08:40:56;3.10;99.90
10968;DHT22;5536;49.602;10.980;2023-03-12T08:43:24;3.20;99.90
10968;DHT22;5536;49.602;10.980;2023-03-12T08:45:55;3.50;99.90
10968;DHT22;5536;49.602;10.980;2023-03-12T08:48:22;3.70;99.90
10968;DHT22;5536;49.602;10.980;2023-03-12T08:50:49;3.80;99.90
10968;DHT22;5536;49.602;10.980;2023-03-12T08:53:16;3.80;99.90
10968;DHT22;5536;49.602;10.980;2023-03-12T08:55:45;3.60;99.90
10968;DHT22;5536;49.602;10.980;2023-03-12T08:58:13;3.60;99.90
10968;DHT22;5536;49.602;10.980;2023-03-12T09:00:40;3.70;99.90
10968;DHT22;5536;49.602;10.980;2023-03-12T09:03:08;3.60;99.90
10968;DHT22;5536;49.602;10.980;2023-03-12T09:05:39;3.60;99.90
10968;DHT22;5536;49.602;10.980;2023-03-12T09:08:08;3.50;99.90
10968;DHT22;5536;49.602;10.980;2023-03-12T09:10:35;3.60;99.90
10968;DHT22;5536;49.602;10.980;2023-03-12T09:13:06;3.60;99.90
10968;DHT22;5536;49.602;10.980;2023-03-12T09:15:33;3.90;99.90
10968;DHT22;5536;49.602;10.980;2023-03-12T09:18:00;4.10;99.90
10968;DHT22;5536;49.602;10.980;2023-03-12T09:20:27;4.20;99.90
10968;DHT22;5536;49.602;10.980;2023-03-12T09:22:54;4.20;99.90
10968;DHT22;5536;49.602;10.980;2023-03-12T09:25:22;4.30;99.90
10968;DHT22;5536;49.602;10.980;2023-03-12T09:27:49;4.40;99.90
10968;DHT22;5536;49.602;10.980;2023-03-12T09:30:20;4.50;99.90
10968;DHT22;5536;49.602;10.980;2023-03-12T09:32:49;4.70;99.90
10968;DHT22;5536;49.602;10.980;2023-03-12T09:35:17;4.90;99.90
10968;DHT22;5536;49.602;10.980;2023-03-12T09:37:47;4.80;99.90
10968;DHT22;5536;49.602;10.980;2023-03-12T09:40:16;4.80;99.90
10968;DHT22;5536;49.602;10.980;2023-03-12T09:42:47;5.00;99.90
10968;DHT22;5536;49.602;10.980;2023-03-12T09:45:21;5.00;99.90
10968;DHT22;5536;49.602;10.980;2023-03-12T09:47:50;5.10;99.90
10968;DHT22;5536;49.602;10.980;2023-03-12T09:50:24;5.00;99.90
10968;DHT22;5536;49.602;10.980;2023-03-12T09:52:56;5.00;99.90
10968;DHT22;5536;49.602;10.980;2023-03-12T09:55:26;5.10;99.90
10968;DHT22;5536;49.602;10.980;2023-03-12T09:57:55;5.10;99.90
10968;DHT22;5536;49.602;10.980;2023-03-12T10:00:28;5.20;99.90
10968;DHT22;5536;49.602;10.980;2023-03-12T10:06:10;5.40;99.90
10968;DHT22;5536;49.602;10.980;2023-03-12T10:08:47;5.50;99.90
10968;DHT22;5536;49.602;10.980;2023-03-12T10:11:24;5.70;99.90
10968;DHT22;5536;49.602;10.980;2023-03-12T10:14:06;5.60;99.90
10968;DHT22;5536;49.602;10.980;2023-03-12T10:16:46;5.70;99.90
10968;DHT22;5536;49.602;10.980;2023-03-12T10:19:24;5.80;99.90
10968;DHT22;5536;49.602;10.980;2023-03-12T10:22:00;6.00;99.90
10968;DHT22;5536;49.602;10.980;2023-03-12T10:24:44;6.20;99.90
10968;DHT22;5536;49.602;10.980;2023-03-12T10:27:16;6.50;99.90
10968;DHT22;5536;49.602;10.980;2023-03-12T10:29:47;6.30;99.90
10968;DHT22;5536;49.602;10.980;2023-03-12T10:32:22;6.00;99.90
10968;DHT22;5536;49.602;10.980;2023-03-12T10:34:52;6.00;99.90
10968;DHT22;5536;49.602;10.980;2023-03-12T10:37:25;6.10;99.90
10968;DHT22;5536;49.602;10.980;2023-03-12T10:39:54;6.00;99.90
10968;DHT22;5536;49.602;10.980;2023-03-12T10:42:28;5.90;99.90
10968;DHT22;5536;49.602;10.980;2023-03-12T10:44:59;6.00;99.90
10968;DHT22;5536;49.602;10.980;2023-03-12T10:47:49;5.90;99.90
10968;DHT22;5536;49.602;10.980;2023-03-12T10:50:18;6.10;99.90
10968;DHT22;5536;49.602;10.980;2023-03-12T10:52:47;6.00;99.90
10968;DHT22;5536;49.602;10.980;2023-03-12T10:55:21;5.90;99.90
10968;DHT22;5536;49.602;10.980;2023-03-12T10:57:54;6.00;99.90
10968;DHT22;5536;49.602;10.980;2023-03-12T11:00:25;6.00;99.90
10968;DHT22;5536;49.602;10.980;2023-03-12T11:02:59;5.90;99.90
10968;DHT22;5536;49.602;10.980;2023-03-12T11:05:30;5.70;99.90
10968;DHT22;5536;49.602;10.980;2023-03-12T11:07:59;5.70;99.90
10968;DHT22;5536;49.602;10.980;2023-03-12T11:10:38;5.60;99.90
10968;DHT22;5536;49.602;10.980;2023-03-12T11:13:24;5.60;99.90
10968;DHT22;5536;49.602;10.980;2023-03-12T11:15:53;5.60;99.90
10968;DHT22;5536;49.602;10.980;2023-03-12T11:18:28;5.70;99.90
10968;DHT22;5536;49.602;10.980;2023-03-12T11:21:12;5.70;99.90
10968;DHT22;5536;49.602;10.980;2023-03-12T11:23:42;5.60;99.90
10968;DHT22;5536;49.602;10.980;2023-03-12T11:26:15;5.60;99.90
10968;DHT22;5536;49.602;10.980;2023-03-12T11:28:47;5.60;99.90
10968;DHT22;5536;49.602;10.980;2023-03-12T11:31:21;5.70;99.90
10968;DHT22;5536;49.602;10.980;2023-03-12T11:33:59;5.70;99.90
10968;DHT22;5536;49.602;10.980;2023-03-12T11:36:38;5.60;99.90
10968;DHT22;5536;49.602;10.980;2023-03-12T11:39:17;5.60;99.90
10968;DHT22;5536;49.602;10.980;2023-03-12T11:41:55;5.70;99.90
10968;DHT22;5536;49.602;10.980;2023-03-12T11:44:28;5.50;99.90
10968;DHT22;5536;49.602;10.980;2023-03-12T11:47:17;5.40;99.90
10968;DHT22;5536;49.602;10.980;2023-03-12T11:50:02;5.50;99.90
10968;DHT22;5536;49.602;10.980;2023-03-12T11:52:45;5.60;99.90
10968;DHT22;5536;49.602;10.980;2023-03-12T11:55:20;5.60;99.90
10968;DHT22;5536;49.602;10.980;2023-03-12T11:57:57;5.70;99.90
10968;DHT22;5536;49.602;10.980;2023-03-12T12:00:31;5.80;99.90
10968;DHT22;5536;49.602;10.980;2023-03-12T12:03:18;5.90;99.90
10968;DHT22;5536;49.602;10.980;2023-03-12T12:05:54;6.00;99.90
10968;DHT22;5536;49.602;10.980;2023-03-12T12:08:42;6.10;99.90
10968;DHT22;5536;49.602;10.980;2023-03-12T12:11:18;6.00;99.90
10968;DHT22;5536;49.602;10.980;2023-03-12T12:13:57;6.00;99.90
10968;DHT22;5536;49.602;10.980;2023-03-12T12:16:44;6.10;99.90
10968;DHT22;5536;49.602;10.980;2023-03-12T12:19:25;6.10;99.90
10968;DHT22;5536;49.602;10.980;2023-03-12T12:22:11;6.10;99.90
10968;DHT22;5536;49.602;10.980;2023-03-12T12:25:04;6.10;99.90
10968;DHT22;5536;49.602;10.980;2023-03-12T12:27:43;6.10;99.90
10968;DHT22;5536;49.602;10.980;2023-03-12T12:30:20;6.00;99.90
10968;DHT22;5536;49.602;10.980;2023-03-12T12:33:07;5.90;99.90
10968;DHT22;5536;49.602;10.980;2023-03-12T12:35:40;6.00;99.90
10968;DHT22;5536;49.602;10.980;2023-03-12T12:38:13;6.00;99.90
10968;DHT22;5536;49.602;10.980;2023-03-12T12:40:48;6.10;99.90
10968;DHT22;5536;49.602;10.980;2023-03-12T12:43:25;6.10;99.90
10968;DHT22;5536;49.602;10.980;2023-03-12T12:45:58;6.10;99.90
10968;DHT22;5536;49.602;10.980;2023-03-12T12:48:29;6.10;99.90
10968;DHT22;5536;49.602;10.980;2023-03-12T12:51:00;6.10;99.90
10968;DHT22;5536;49.602;10.980;2023-03-12T12:53:34;6.10;99.90
10968;DHT22;5536;49.602;10.980;2023-03-12T12:56:09;6.10;99.90
10968;DHT22;5536;49.602;10.980;2023-03-12T12:59:01;6.10;99.90
10968;DHT22;5536;49.602;10.980;2023-03-12T13:01:31;6.10;99.90
10968;DHT22;5536;49.602;10.980;2023-03-12T13:04:03;6.00;99.90
10968;DHT22;5536;49.602;10.980;2023-03-12T13:06:52;6.00;99.90
10968;DHT22;5536;49.602;10.980;2023-03-12T13:09:34;6.10;99.90
10968;DHT22;5536;49.602;10.980;2023-03-12T13:12:17;6.20;99.90
10968;DHT22;5536;49.602;10.980;2023-03-12T13:14:46;6.20;99.90
10968;DHT22;5536;49.602;10.980;2023-03-12T13:17:29;6.20;99.90
10968;DHT22;5536;49.602;10.980;2023-03-12T13:20:15;6.10;99.90
10968;DHT22;5536;49.602;10.980;2023-03-12T13:22:57;6.10;99.90
10968;DHT22;5536;49.602;10.980;2023-03-12T13:25:40;6.20;99.90
10968;DHT22;5536;49.602;10.980;2023-03-12T13:28:33;6.30;99.90
10968;DHT22;5536;49.602;10.980;2023-03-12T13:33:51;6.30;99.90
10968;DHT22;5536;49.602;10.980;2023-03-12T13:36:21;6.30;99.90
10968;DHT22;5536;49.602;10.980;2023-03-12T13:38:55;6.40;99.90
10968;DHT22;5536;49.602;10.980;2023-03-12T13:41:33;6.40;99.90
10968;DHT22;5536;49.602;10.980;2023-03-12T13:44:22;6.50;99.90
10968;DHT22;5536;49.602;10.980;2023-03-12T13:46:57;6.60;99.90
10968;DHT22;5536;49.602;10.980;2023-03-12T13:49:26;6.60;99.90
10968;DHT22;5536;49.602;10.980;2023-03-12T13:51:58;6.60;99.90
10968;DHT22;5536;49.602;10.980;2023-03-12T13:54:32;6.60;99.90
10968;DHT22;5536;49.602;10.980;2023-03-12T13:57:04;6.60;99.90
10968;DHT22;5536;49.602;10.980;2023-03-12T13:59:42;6.60;99.90
10968;DHT22;5536;49.602;10.980;2023-03-12T14:02:21;6.60;99.90
10968;DHT22;5536;49.602;10.980;2023-03-12T14:04:50;6.60;99.90
10968;DHT22;5536;49.602;10.980;2023-03-12T14:10:27;6.70;99.90
10968;DHT22;5536;49.602;10.980;2023-03-12T14:13:10;6.60;99.90
10968;DHT22;5536;49.602;10.980;2023-03-12T14:15:50;6.60;99.90
10968;DHT22;5536;49.602;10.980;2023-03-12T14:18:22;6.60;99.90
10968;DHT22;5536;49.602;10.980;2023-03-12T14:20:55;6.60;99.90
10968;DHT22;5536;49.602;10.980;2023-03-12T14:23:27;6.60;99.90
10968;DHT22;5536;49.602;10.980;2023-03-12T14:25:58;6.70;99.90
10968;DHT22;5536;49.602;10.980;2023-03-12T14:28:39;6.60;99.90
10968;DHT22;5536;49.602;10.980;2023-03-12T14:31:10;6.60;99.90
10968;DHT22;5536;49.602;10.980;2023-03-12T14:33:49;6.70;99.90
10968;DHT22;5536;49.602;10.980;2023-03-12T14:36:21;6.70;99.90
10968;DHT22;5536;49.602;10.980;2023-03-12T14:38:57;6.70;99.90
10968;DHT22;5536;49.602;10.980;2023-03-12T14:41:35;6.70;99.90
10968;DHT22;5536;49.602;10.980;2023-03-12T14:44:20;6.70;99.90
10968;DHT22;5536;49.602;10.980;2023-03-12T14:46:55;6.80;99.90
10968;DHT22;5536;49.602;10.980;2023-03-12T14:49:23;6.80;99.90
10968;DHT22;5536;49.602;10.980;2023-03-12T14:51:59;6.80;99.90
10968;DHT22;5536;49.602;10.980;2023-03-12T14:54:28;6.90;99.90
10968;DHT22;5536;49.602;10.980;2023-03-12T14:57:00;6.90;99.90
10968;DHT22;5536;49.602;10.980;2023-03-12T14:59:33;7.00;99.90
10968;DHT22;5536;49.602;10.980;2023-03-12T15:02:10;7.00;99.90
10968;DHT22;5536;49.602;10.980;2023-03-12T15:04:40;7.00;99.90
10968;DHT22;5536;49.602;10.980;2023-03-12T15:07:11;7.10;99.90
10968;DHT22;5536;49.602;10.980;2023-03-12T15:09:42;7.10;99.90
10968;DHT22;5536;49.602;10.980;2023-03-12T15:12:18;7.20;99.90
10968;DHT22;5536;49.602;10.980;2023-03-12T15:14:51;7.20;99.90
10968;DHT22;5536;49.602;10.980;2023-03-12T15:17:23;7.20;99.90
10968;DHT22;5536;49.602;10.980;2023-03-12T15:19:53;7.30;99.90
10968;DHT22;5536;49.602;10.980;2023-03-12T15:22:23;7.50;99.90
10968;DHT22;5536;49.602;10.980;2023-03-12T15:24:52;7.60;99.90
10968;DHT22;5536;49.602;10.980;2023-03-12T15:27:31;7.70;99.90
10968;DHT22;5536;49.602;10.980;2023-03-12T15:30:00;7.90;99.90
10968;DHT22;5536;49.602;10.980;2023-03-12T15:32:31;7.90;99.90
10968;DHT22;5536;49.602;10.980;2023-03-12T15:35:11;8.00;99.90
10968;DHT22;5536;49.602;10.980;2023-03-12T15:37:49;8.10;99.90
10968;DHT22;5536;49.602;10.980;2023-03-12T15:40:20;8.20;99.90
10968;DHT22;5536;49.602;10.980;2023-03-12T15:42:50;8.20;99.90
10968;DHT22;5536;49.602;10.980;2023-03-12T15:45:34;8.30;99.90
10968;DHT22;5536;49.602;10.980;2023-03-12T15:48:15;8.40;99.90
10968;DHT22;5536;49.602;10.980;2023-03-12T15:50:45;8.50;99.90
10968;DHT22;5536;49.602;10.980;2023-03-12T15:53:26;8.60;99.90
10968;DHT22;5536;49.602;10.980;2023-03-12T15:56:00;8.70;99.90
10968;DHT22;5536;49.602;10.980;2023-03-12T15:58:30;8.70;99.90
10968;DHT22;5536;49.602;10.980;2023-03-12T16:01:10;8.70;99.90
10968;DHT22;5536;49.602;10.980;2023-03-12T16:03:40;8.70;99.90
10968;DHT22;5536;49.602;10.980;2023-03-12T16:06:10;8.70;99.90
10968;DHT22;5536;49.602;10.980;2023-03-12T16:08:44;8.70;99.90
10968;DHT22;5536;49.602;10.980;2023-03-12T16:11:18;8.60;99.90
10968;DHT22;5536;49.602;10.980;2023-03-12T16:13:48;8.70;99.90